Bala, Canada
Current Conditions -  °F | °C
As of 4:00 AM on Wednesday 28 Jan 2015 (Local Time) from CYQA Reporting Station
Clear Clear  
Wind Chill: -11°   Ceiling: Unl
Heat Index: -11°   Visibility: 9mi
Dew Point: -13°   Wind: 3mph
Humidity: 92%   Direction: 340°NNW
Pressure: 30.14"   Gusts: NA
Location:  45.02°N, 79.61°W
Report Text: CYQA 280900Z AUTO 34003KT 9SM CLR M24/M25 A3014 RMK SLP231
Loading
Personal Weather Stations






























Interactive Weather Map New forecast layout! Learn more

10-Day Weather Forecast

Advertisements
Track Severe Weather on mobile